Time;durP1;ratioP1;P1;durP2;ratioP2;P2;SDS_P1;SDS_P2;PMS_P1;PMS_P2;Temp;Humidity;BMP_temperature;BMP_pressure;BME280_temperature;BME280_humidity;BME280_pressure;Samples;Min_cycle;Max_cycle;Signal;HPM_P1;HPM_P2
2021/11/23 00:00:49;;;;;;;13.98;7.80;;;2.60;98.30;;;0.06;100.00;102005.72;4982776;28;20757;-85
2021/11/23 00:03:19;;;;;;;16.10;7.97;;;2.50;98.30;;;0.07;100.00;102002.09;4990876;28;20101;-85
2021/11/23 00:05:46;;;;;;;15.63;7.60;;;2.50;98.30;;;0.09;100.00;102000.22;4990882;28;20399;-85
2021/11/23 00:08:15;;;;;;;13.70;7.68;;;2.50;98.40;;;0.07;100.00;101994.94;4990923;28;20046;-85
2021/11/23 00:10:44;;;;;;;13.15;8.07;;;2.60;98.40;;;0.07;100.00;101997.59;4991073;28;20549;-85
2021/11/23 00:13:14;;;;;;;11.95;7.05;;;2.50;98.40;;;0.05;100.00;101996.81;4990915;28;20499;-86
2021/11/23 00:15:42;;;;;;;11.88;6.75;;;2.50;98.30;;;0.04;100.00;101994.22;4988713;28;20151;-85
2021/11/23 00:18:12;;;;;;;14.07;8.18;;;2.50;98.30;;;0.03;100.00;101992.50;4989945;28;20089;-85
2021/11/23 00:20:42;;;;;;;12.18;7.97;;;2.50;98.30;;;0.01;100.00;101994.41;4991056;28;20045;-85
2021/11/23 00:23:09;;;;;;;13.60;7.40;;;2.50;98.40;;;0.01;100.00;101999.75;4990999;28;20510;-85
2021/11/23 00:25:37;;;;;;;13.77;7.43;;;2.50;98.40;;;-0.06;100.00;101997.41;4990471;28;20129;-85
2021/11/23 00:28:06;;;;;;;14.27;7.93;;;2.50;98.40;;;-0.03;100.00;102005.25;4990727;28;20038;-85
2021/11/23 00:30:33;;;;;;;11.13;6.80;;;2.50;98.40;;;-0.03;100.00;101994.56;4979355;28;20133;-86
2021/11/23 00:33:01;;;;;;;10.80;6.88;;;2.50;98.40;;;-0.05;100.00;101996.44;4972402;28;20058;-85
2021/11/23 00:35:29;;;;;;;14.27;7.30;;;2.50;98.40;;;-0.07;100.00;101992.13;4989126;28;20124;-85
2021/11/23 00:37:57;;;;;;;12.27;7.25;;;2.50;98.40;;;-0.09;100.00;101994.88;4990431;28;20046;-84
2021/11/23 00:40:25;;;;;;;13.50;6.82;;;2.50;98.40;;;-0.09;100.00;101984.16;4990444;28;20046;-84
2021/11/23 00:42:52;;;;;;;13.43;6.95;;;2.50;98.30;;;-0.06;100.00;101986.69;4987892;28;20038;-85
2021/11/23 00:45:22;;;;;;;12.43;6.72;;;2.40;98.20;;;-0.06;100.00;101989.38;4981770;28;20089;-85
2021/11/23 00:47:49;;;;;;;13.63;7.70;;;2.40;98.30;;;-0.08;100.00;101971.66;4988865;28;20049;-84
2021/11/23 00:50:17;;;;;;;11.95;6.63;;;2.40;98.30;;;-0.03;100.00;101983.84;4988968;28;20462;-85
2021/11/23 00:52:45;;;;;;;13.13;7.50;;;2.40;98.30;;;-0.02;100.00;101979.34;4990209;28;20049;-86
2021/11/23 00:55:13;;;;;;;11.45;7.45;;;2.40;98.30;;;-0.02;100.00;101977.56;4989954;28;20050;-85
2021/11/23 00:57:41;;;;;;;18.65;7.35;;;2.40;98.50;;;0.06;100.00;101984.31;4988752;28;20160;-85
2021/11/23 01:00:13;;;;;;;10.88;6.45;;;2.40;98.60;;;0.09;100.00;101986.81;4978995;28;20497;-85
2021/11/23 01:02:42;;;;;;;12.45;7.28;;;2.50;98.80;;;0.13;100.00;101972.34;4973096;28;20089;-86
2021/11/23 01:05:10;;;;;;;14.48;7.18;;;2.50;98.90;;;0.19;100.00;101982.72;4970286;28;20050;-85
2021/11/23 01:07:37;;;;;;;15.15;7.53;;;2.50;99.00;;;0.19;100.00;101974.69;4970465;28;20125;-85
2021/11/23 01:10:07;;;;;;;12.07;6.78;;;2.50;99.10;;;0.21;100.00;101966.56;4970304;28;20089;-85
2021/11/23 01:12:36;;;;;;;15.82;7.53;;;2.50;99.10;;;0.16;100.00;101967.69;4970435;28;20130;-86
2021/11/23 01:15:05;;;;;;;12.80;7.45;;;2.60;99.10;;;0.16;100.00;101964.16;4972894;28;20046;-85
2021/11/23 01:17:32;;;;;;;12.60;7.25;;;2.50;99.10;;;0.14;100.00;101971.41;4982050;28;20043;-86
2021/11/23 01:20:01;;;;;;;13.55;7.00;;;2.50;99.10;;;0.15;100.00;101970.44;4970395;28;20380;-85
2021/11/23 01:22:28;;;;;;;15.18;7.93;;;2.50;99.20;;;0.08;100.00;101966.38;4970478;28;20078;-85
2021/11/23 01:24:56;;;;;;;13.73;7.70;;;2.50;99.10;;;0.07;100.00;101962.81;4970192;28;20049;-85
2021/11/23 01:27:23;;;;;;;17.80;8.70;;;2.50;99.00;;;0.06;100.00;101960.22;4970292;28;20050;-85
2021/11/23 01:29:50;;;;;;;14.93;9.23;;;2.50;99.00;;;0.04;100.00;101973.69;4972891;28;20034;-85
2021/11/23 01:32:18;;;;;;;20.30;9.38;;;2.50;99.00;;;0.01;100.00;101967.66;4977559;28;20074;-85
2021/11/23 01:34:45;;;;;;;16.42;8.63;;;2.50;98.90;;;0.01;100.00;101978.34;4986951;28;20068;-86
2021/11/23 01:37:14;;;;;;;13.82;7.80;;;2.50;98.70;;;-0.03;100.00;101972.28;4989339;28;20054;-85
2021/11/23 01:39:41;;;;;;;13.13;7.20;;;2.50;98.70;;;-0.03;100.00;101978.50;4989262;28;20073;-84
2021/11/23 01:42:10;;;;;;;13.88;7.70;;;2.50;98.80;;;-0.06;100.00;101972.44;4989192;28;20050;-85
2021/11/23 01:44:38;;;;;;;17.67;7.97;;;2.40;98.70;;;-0.05;100.00;101974.19;4991344;28;20101;-85
2021/11/23 01:47:05;;;;;;;13.77;7.90;;;2.40;98.80;;;-0.05;100.00;101972.34;4985001;28;20050;-85
2021/11/23 01:49:32;;;;;;;15.73;8.27;;;2.40;98.90;;;-0.03;100.00;101980.31;4981092;28;20487;-85
2021/11/23 01:52:00;;;;;;;12.50;7.32;;;2.40;98.90;;;-0.06;100.00;101970.66;4989260;28;20108;-85
2021/11/23 01:54:29;;;;;;;16.00;8.50;;;2.40;99.00;;;-0.01;100.00;101971.25;4989003;28;20142;-86
2021/11/23 01:56:56;;;;;;;18.17;8.43;;;2.50;99.10;;;0.01;100.00;101973.00;4989199;28;20070;-84
2021/11/23 01:59:24;;;;;;;14.73;8.38;;;2.40;99.10;;;0.02;100.00;101969.34;5032116;23;20568;-89
2021/11/23 02:01:52;;;;;;;12.43;8.13;;;2.40;99.20;;;-0.01;100.00;101973.94;5008652;28;20046;-90
2021/11/23 02:04:19;;;;;;;14.13;8.15;;;2.40;99.10;;;-0.01;100.00;101973.06;5008638;28;20470;-87
2021/11/23 02:06:46;;;;;;;17.80;8.48;;;2.40;99.10;;;-0.03;100.00;101973.16;5008015;28;20129;-88
2021/11/23 02:09:15;;;;;;;15.68;9.00;;;2.40;99.10;;;-0.04;100.00;101974.09;4984612;28;20046;-89
2021/11/23 02:11:45;;;;;;;13.00;7.78;;;2.40;99.10;;;-0.05;100.00;101972.34;4985000;28;20560;-89
2021/11/23 02:14:12;;;;;;;14.57;8.40;;;2.40;99.20;;;0.01;100.00;101978.34;4987091;28;20226;-88
2021/11/23 02:16:40;;;;;;;15.18;8.18;;;2.40;99.10;;;0.05;100.00;101969.22;4988888;28;20073;-89
2021/11/23 02:19:07;;;;;;;13.95;8.27;;;2.40;99.30;;;-0.02;100.00;101972.22;4989295;28;20503;-87
2021/11/23 02:21:36;;;;;;;15.27;8.07;;;2.40;99.30;;;0.00;100.00;101977.50;4989206;28;20537;-87
2021/11/23 02:24:04;;;;;;;13.93;8.02;;;2.40;99.30;;;-0.05;100.00;101977.72;4987131;28;20062;-87
2021/11/23 02:26:31;;;;;;;16.83;9.07;;;2.40;99.40;;;-0.06;100.00;101984.03;4980369;28;20062;-88
2021/11/23 02:28:59;;;;;;;17.75;9.10;;;2.40;99.40;;;-0.06;100.00;101981.34;4987231;28;20368;-88
2021/11/23 02:31:26;;;;;;;15.30;9.20;;;2.40;99.30;;;-0.04;100.00;101975.88;4970953;28;20102;-88
2021/11/23 02:33:53;;;;;;;19.52;10.18;;;2.40;99.30;;;-0.02;100.00;101974.00;4976549;28;20046;-87
2021/11/23 02:36:22;;;;;;;17.10;9.55;;;2.40;99.40;;;0.02;100.00;101974.72;4980105;28;20105;-87
2021/11/23 02:38:52;;;;;;;20.30;10.25;;;2.40;99.50;;;0.07;100.00;101967.31;4975987;28;20062;-89
2021/11/23 02:41:20;;;;;;;20.83;11.27;;;2.40;99.60;;;0.11;100.00;101971.56;4968147;28;20078;-88
2021/11/23 02:43:48;;;;;;;32.33;14.50;;;2.40;99.60;;;0.19;100.00;101977.34;4967962;28;20092;-87
2021/11/23 02:46:16;;;;;;;31.88;15.00;;;2.40;99.60;;;0.25;100.00;101970.81;4967633;28;20070;-87
2021/11/23 02:48:44;;;;;;;38.45;15.50;;;2.40;99.60;;;0.30;100.00;101966.94;4967786;28;20109;-89
2021/11/23 02:51:15;;;;;;;30.38;15.48;;;2.40;99.60;;;0.36;100.00;101961.28;4967355;28;20074;-88
2021/11/23 02:53:43;;;;;;;26.50;13.57;;;2.50;99.90;;;0.42;100.00;101961.88;4976022;28;20134;-88
2021/11/23 02:56:14;;;;;;;25.65;12.93;;;2.60;99.90;;;0.45;100.00;101956.38;4974081;28;20090;-88
2021/11/23 02:58:46;;;;;;;23.90;12.00;;;2.50;99.90;;;0.49;100.00;101956.09;4969867;28;20117;-89
2021/11/23 03:01:15;;;;;;;22.40;12.02;;;2.60;99.90;;;0.62;100.00;101953.63;4971349;28;20050;-87
2021/11/23 03:03:43;;;;;;;25.08;12.60;;;2.60;99.90;;;0.68;100.00;101957.78;4973234;28;20140;-88
2021/11/23 03:06:13;;;;;;;26.63;13.52;;;2.70;99.90;;;0.73;100.00;101943.19;4971591;28;20226;-88
2021/11/23 03:08:41;;;;;;;25.50;13.30;;;2.70;99.90;;;0.81;100.00;101953.47;4971441;28;20051;-89
2021/11/23 03:11:08;;;;;;;27.23;13.57;;;2.90;99.90;;;0.84;100.00;101952.41;4971834;28;20137;-89
2021/11/23 03:13:37;;;;;;;25.85;13.10;;;2.80;99.90;;;0.90;100.00;101952.09;4986013;28;20097;-88
2021/11/23 03:16:05;;;;;;;27.40;13.93;;;2.90;99.90;;;0.96;100.00;101957.09;4982661;28;20049;-88
2021/11/23 03:18:33;;;;;;;26.23;14.20;;;2.90;99.90;;;1.01;100.00;101955.03;4992169;28;20050;-88
2021/11/23 03:21:00;;;;;;;27.80;13.77;;;2.90;99.90;;;1.01;100.00;101955.03;4990732;28;20053;-88
2021/11/23 03:23:28;;;;;;;25.08;12.90;;;3.00;99.90;;;1.06;100.00;101952.94;4990654;28;20082;-88
2021/11/23 03:25:55;;;;;;;24.70;13.25;;;3.00;99.90;;;1.12;100.00;101944.56;4990446;28;20046;-88
2021/11/23 03:28:23;;;;;;;27.08;14.60;;;3.10;99.90;;;1.14;100.00;101939.97;4990458;28;20097;-89
2021/11/23 03:30:52;;;;;;;27.38;13.85;;;3.10;99.90;;;1.20;100.00;101945.91;4974177;28;20065;-89
2021/11/23 03:33:20;;;;;;;26.02;13.38;;;3.20;99.90;;;1.19;100.00;101942.38;4975025;28;20160;-88
2021/11/23 03:35:47;;;;;;;27.48;13.65;;;3.20;99.90;;;1.25;100.00;101939.34;5002478;28;20037;-88
2021/11/23 03:38:16;;;;;;;27.20;14.38;;;3.20;99.90;;;1.29;100.00;101948.06;5010245;28;20058;-90
2021/11/23 03:40:45;;;;;;;31.17;16.38;;;3.20;99.90;;;1.29;100.00;101931.97;5010166;28;20081;-88
2021/11/23 03:43:14;;;;;;;29.05;15.18;;;3.20;99.90;;;1.31;100.00;101935.44;5009864;28;20140;-88
2021/11/23 03:45:43;;;;;;;29.83;14.45;;;3.30;99.90;;;1.31;100.00;101930.97;4980207;28;20047;-89
2021/11/23 03:48:12;;;;;;;24.65;14.13;;;3.30;99.90;;;1.35;100.00;101931.63;4990331;28;20058;-88
2021/11/23 03:50:39;;;;;;;25.65;14.10;;;3.30;99.90;;;1.42;100.00;101942.88;4991748;28;20054;-88
2021/11/23 03:53:07;;;;;;;26.00;13.73;;;3.50;99.90;;;1.46;100.00;101933.69;4990156;28;20089;-89
2021/11/23 03:55:36;;;;;;;25.58;14.15;;;3.40;99.90;;;1.50;100.00;101933.38;4989763;28;20057;-87
2021/11/23 03:58:04;;;;;;;29.90;13.60;;;3.40;99.90;;;1.57;100.00;101936.59;4991734;28;20494;-87
2021/11/23 04:00:32;;;;;;;26.95;14.20;;;3.60;99.90;;;1.58;100.00;101937.44;4989738;28;20081;-88
2021/11/23 04:02:59;;;;;;;27.13;14.18;;;3.50;99.90;;;1.67;100.00;101934.22;4990077;28;20078;-88
2021/11/23 04:05:28;;;;;;;24.00;12.88;;;3.50;99.90;;;1.65;100.00;101938.81;4989967;28;20046;-89
2021/11/23 04:07:55;;;;;;;28.52;12.88;;;3.60;99.90;;;1.64;100.00;101934.38;4986857;28;20589;-88
2021/11/23 04:10:25;;;;;;;25.27;13.18;;;3.60;99.90;;;1.68;100.00;101925.22;4984869;28;20129;-89
2021/11/23 04:12:52;;;;;;;22.40;12.60;;;3.60;99.90;;;1.73;100.00;101925.78;4990271;28;20122;-87
2021/11/23 04:15:20;;;;;;;26.88;13.85;;;3.70;99.90;;;1.81;100.00;101922.63;4989725;28;20120;-88
2021/11/23 04:17:50;;;;;;;25.55;13.88;;;3.70;99.90;;;1.85;100.00;101918.84;4989919;28;20053;-88
2021/11/23 04:20:17;;;;;;;26.00;13.93;;;3.80;99.90;;;1.84;100.00;101912.59;4990923;28;20594;-89
2021/11/23 04:22:47;;;;;;;23.85;12.77;;;3.80;99.90;;;1.87;100.00;101920.47;4989583;28;20559;-88
2021/11/23 04:25:15;;;;;;;28.55;13.82;;;3.80;99.90;;;1.91;100.00;101918.47;4989363;28;20518;-89
2021/11/23 04:27:43;;;;;;;26.98;13.82;;;3.80;99.90;;;1.97;100.00;101922.59;4989919;28;20482;-88
2021/11/23 04:30:12;;;;;;;32.40;14.38;;;3.90;99.90;;;1.97;100.00;101922.59;4988775;28;20050;-88
2021/11/23 04:32:40;;;;;;;25.52;13.73;;;3.90;99.90;;;2.00;100.00;101917.00;4991061;28;20148;-89
2021/11/23 04:35:09;;;;;;;34.38;15.18;;;4.00;99.90;;;2.04;100.00;101924.81;4983889;28;20046;-90
2021/11/23 04:37:37;;;;;;;30.55;15.00;;;4.00;99.90;;;2.08;100.00;101920.09;5002685;28;20039;-87
2021/11/23 04:40:08;;;;;;;32.97;15.05;;;4.00;99.90;;;2.10;100.00;101918.19;4989327;28;20051;-88
2021/11/23 04:42:35;;;;;;;28.83;15.60;;;4.10;99.90;;;2.19;100.00;101911.38;4989541;28;20050;-90
2021/11/23 04:45:03;;;;;;;28.00;15.07;;;4.10;99.90;;;2.22;100.00;101920.09;4988902;28;20050;-90
2021/11/23 04:47:31;;;;;;;34.15;16.83;;;4.20;99.90;;;2.26;100.00;101916.25;4989057;28;20157;-87
2021/11/23 04:49:58;;;;;;;28.95;14.93;;;4.20;99.90;;;2.32;100.00;101915.91;4988038;28;20763;-88
2021/11/23 04:52:26;;;;;;;30.70;16.15;;;4.40;99.90;;;2.38;100.00;101911.06;4982754;28;20137;-88
2021/11/23 04:54:56;;;;;;;34.22;16.58;;;4.30;99.90;;;2.38;100.00;101911.06;4989477;28;20499;-88
2021/11/23 04:57:24;;;;;;;31.70;15.88;;;4.30;99.90;;;2.42;100.00;101912.59;4988903;28;20054;-89
2021/11/23 04:59:52;;;;;;;30.35;15.65;;;4.30;99.90;;;2.47;100.00;101916.72;4988838;28;20568;-88
2021/11/23 05:02:20;;;;;;;32.03;16.00;;;4.40;99.90;;;2.49;100.00;101905.88;4988595;28;20788;-88
2021/11/23 05:04:47;;;;;;;28.05;15.35;;;4.40;99.90;;;2.52;100.00;101911.06;4988393;28;20046;-86
2021/11/23 05:07:51;;;;;;;27.90;15.25;;;4.50;99.90;;;2.52;100.00;101909.25;4992882;28;20046;-91
2021/11/23 05:14:12;;;;;;;31.13;15.15;;;4.50;99.90;;;2.47;100.00;101900.59;4970029;28;20042;-90
2021/11/23 05:16:40;;;;;;;30.77;15.50;;;4.60;99.90;;;2.51;100.00;101907.53;4986343;28;20057;-89
2021/11/23 05:19:08;;;;;;;30.90;15.38;;;4.60;99.90;;;2.51;100.00;101912.03;4969418;28;20043;-89
2021/11/23 05:21:36;;;;;;;33.03;16.20;;;4.60;99.90;;;2.57;100.00;101911.66;4968693;28;20113;-89
2021/11/23 05:24:03;;;;;;;35.55;16.50;;;4.60;99.90;;;2.54;100.00;101903.78;4980317;28;20137;-90
2021/11/23 05:26:31;;;;;;;28.90;16.00;;;4.70;99.90;;;2.61;100.00;101909.59;4989050;28;20053;-90
2021/11/23 05:28:58;;;;;;;31.60;15.95;;;4.70;99.90;;;2.64;100.00;101912.09;4988709;28;20128;-86
2021/11/23 05:31:27;;;;;;;30.55;16.13;;;4.70;99.90;;;2.65;100.00;101903.94;4990622;28;20173;-87
2021/11/23 05:33:54;;;;;;;71.50;19.95;;;4.70;99.90;;;2.66;100.00;101894.06;4990811;28;20077;-87
2021/11/23 05:36:22;;;;;;;35.78;16.08;;;4.80;99.90;;;2.69;100.00;101905.47;4988970;28;20075;-89
2021/11/23 05:38:50;;;;;;;33.45;16.35;;;4.80;99.90;;;2.65;100.00;101898.56;4985220;28;20473;-88
2021/11/23 05:41:17;;;;;;;31.10;16.25;;;4.70;99.90;;;2.65;100.00;101898.56;4982802;28;20054;-88
2021/11/23 05:43:45;;;;;;;30.77;16.33;;;4.70;99.90;;;2.64;100.00;101895.97;4988055;28;20050;-87
2021/11/23 05:46:14;;;;;;;31.38;16.55;;;4.80;99.90;;;2.63;100.00;101905.03;4989029;28;20042;-84
2021/11/23 05:48:45;;;;;;;29.92;16.15;;;4.90;99.90;;;2.61;100.00;101902.44;4986224;28;20042;-83
2021/11/23 05:51:13;;;;;;;27.00;16.13;;;4.80;99.90;;;2.63;100.00;101903.19;4989300;28;20125;-83
2021/11/23 05:53:41;;;;;;;30.05;15.85;;;4.80;99.90;;;2.61;100.00;101902.44;4989280;28;20124;-82
2021/11/23 05:56:09;;;;;;;35.10;17.15;;;4.80;99.90;;;2.60;100.00;101895.31;4976695;28;20090;-83
2021/11/23 05:58:37;;;;;;;31.10;16.55;;;4.80;99.90;;;2.61;100.00;101891.69;4985613;28;20124;-82
2021/11/23 06:01:05;;;;;;;42.22;17.70;;;4.80;99.90;;;2.64;100.00;101899.53;4988899;28;20043;-82
2021/11/23 06:03:33;;;;;;;31.98;17.52;;;4.80;99.90;;;2.62;100.00;101897.91;4988984;28;20101;-82
2021/11/23 06:06:02;;;;;;;31.25;17.13;;;4.80;99.90;;;2.65;100.00;101898.56;4988476;28;20582;-82
2021/11/23 06:08:30;;;;;;;31.15;16.85;;;4.80;99.90;;;2.68;100.00;101898.34;4986933;28;20068;-82
2021/11/23 06:10:58;;;;;;;35.10;17.40;;;4.80;99.90;;;2.65;100.00;101889.66;4985046;28;20085;-81
2021/11/23 06:13:25;;;;;;;35.15;17.55;;;4.80;99.90;;;2.64;100.00;101899.53;4978365;28;20038;-80
2021/11/23 06:15:52;;;;;;;35.50;17.55;;;4.80;99.90;;;2.66;100.00;101897.59;4978265;28;20157;-80
2021/11/23 06:18:20;;;;;;;31.15;17.60;;;4.80;99.90;;;2.66;100.00;101900.28;4988949;28;20668;-80
2021/11/23 06:20:49;;;;;;;36.65;18.20;;;4.90;99.90;;;2.68;100.00;101902.88;4988553;28;20137;-80
2021/11/23 06:23:20;;;;;;;31.63;16.90;;;4.80;99.90;;;2.72;100.00;101899.03;4988826;28;20068;-80
2021/11/23 06:25:50;;;;;;;35.42;17.67;;;4.90;99.90;;;2.70;100.00;101898.25;4988378;28;20057;-80
2021/11/23 06:28:20;;;;;;;37.63;17.25;;;4.90;99.90;;;2.74;100.00;101897.97;4988745;28;20070;-80
2021/11/23 06:30:47;;;;;;;32.40;17.90;;;4.90;99.90;;;2.76;100.00;101894.31;4987961;28;20157;-80
2021/11/23 06:33:16;;;;;;;34.88;18.33;;;4.90;99.90;;;2.73;100.00;101898.94;4990207;28;20046;-80
2021/11/23 06:35:44;;;;;;;33.03;18.85;;;4.90;99.90;;;2.74;100.00;101892.59;4992310;28;20186;-80
2021/11/23 06:38:11;;;;;;;38.25;18.00;;;4.90;99.90;;;2.73;100.00;101909.69;4991118;28;20721;-80
2021/11/23 06:40:41;;;;;;;36.85;19.15;;;4.90;99.90;;;2.72;100.00;101918.72;4992581;28;20467;-79
2021/11/23 06:43:10;;;;;;;37.13;18.88;;;4.90;99.90;;;2.74;100.00;101915.91;4987514;28;20042;-80
2021/11/23 06:45:40;;;;;;;34.55;18.00;;;4.90;99.90;;;2.80;100.00;101911.97;4989833;28;20153;-80
2021/11/23 06:48:10;;;;;;;33.03;18.30;;;4.90;99.90;;;2.86;100.00;101917.81;4991290;28;20454;-80
2021/11/23 06:50:38;;;;;;;35.83;18.40;;;4.90;99.90;;;2.88;100.00;101923.09;4992511;28;20495;-80
2021/11/23 06:53:08;;;;;;;33.72;18.23;;;4.90;99.90;;;2.87;100.00;101921.38;4990308;28;20143;-80
2021/11/23 06:55:37;;;;;;;34.83;18.75;;;4.90;99.90;;;2.89;100.00;101933.78;4992246;28;20557;-80
2021/11/23 06:58:05;;;;;;;34.72;18.35;;;5.00;99.90;;;2.88;100.00;101928.47;4990951;28;20074;-79
2021/11/23 07:00:33;;;;;;;31.92;17.83;;;5.00;99.90;;;2.90;100.00;101929.25;4983719;28;20069;-79
2021/11/23 07:03:00;;;;;;;33.42;17.77;;;5.00;99.90;;;2.89;100.00;101932.88;4991610;28;20061;-79
2021/11/23 07:05:28;;;;;;;36.50;18.10;;;5.00;99.90;;;2.90;100.00;101937.31;4992005;28;20046;-79
2021/11/23 07:07:57;;;;;;;34.17;18.92;;;5.00;99.90;;;2.93;100.00;101939.78;4990738;28;20066;-79
2021/11/23 07:10:25;;;;;;;43.42;19.70;;;5.00;99.90;;;2.92;100.00;101928.16;4991883;28;20050;-79
2021/11/23 07:12:52;;;;;;;35.47;18.55;;;5.00;99.90;;;2.92;100.00;101938.06;4990709;28;20462;-79
2021/11/23 07:15:21;;;;;;;42.33;18.77;;;5.00;99.90;;;2.90;100.00;101934.63;4987749;28;20551;-80
2021/11/23 07:17:49;;;;;;;37.05;18.52;;;5.00;99.90;;;2.93;100.00;101934.41;4980538;28;20490;-79
2021/11/23 07:20:16;;;;;;;35.83;18.70;;;5.00;99.90;;;2.94;100.00;101936.16;4991761;28;20149;-80
2021/11/23 07:22:44;;;;;;;33.95;18.10;;;5.00;99.90;;;2.88;100.00;101941.94;4990904;28;20050;-80
2021/11/23 07:25:11;;;;;;;37.03;19.00;;;5.00;99.90;;;2.87;100.00;101940.19;4995835;28;20041;-79
2021/11/23 07:27:39;;;;;;;34.35;18.63;;;5.00;99.90;;;2.86;100.00;101946.53;5011361;28;20379;-79
2021/11/23 07:30:08;;;;;;;35.63;17.90;;;5.00;99.90;;;2.86;100.00;101952.78;5005076;28;20049;-79
2021/11/23 07:32:36;;;;;;;35.17;19.48;;;5.00;99.90;;;2.91;100.00;101955.16;4988119;28;20402;-79
2021/11/23 07:35:04;;;;;;;44.38;21.63;;;5.00;99.90;;;2.95;100.00;101954.00;4986319;28;20078;-79
2021/11/23 07:37:36;;;;;;;38.92;20.02;;;5.00;99.90;;;2.96;100.00;101961.09;4987695;28;20101;-79
2021/11/23 07:40:05;;;;;;;36.58;21.00;;;5.00;99.90;;;2.99;100.00;101963.63;4991562;28;20145;-80
2021/11/23 07:42:32;;;;;;;40.78;21.08;;;5.00;99.90;;;2.97;100.00;101962.84;4989922;28;20050;-80
2021/11/23 07:44:59;;;;;;;47.83;20.75;;;5.00;99.90;;;2.92;100.00;101970.34;4988579;28;20070;-80
2021/11/23 07:47:27;;;;;;;38.67;20.42;;;5.00;99.90;;;2.94;100.00;101963.88;4989821;28;20572;-80
2021/11/23 07:49:56;;;;;;;41.97;21.42;;;5.10;99.90;;;3.00;100.00;101973.38;4991013;28;20077;-80
2021/11/23 07:52:23;;;;;;;39.80;19.98;;;5.10;99.90;;;3.05;100.00;101971.28;4988861;28;20081;-80
2021/11/23 07:54:51;;;;;;;43.55;21.95;;;5.10;99.90;;;3.09;100.00;101972.78;4991079;28;20132;-80
2021/11/23 07:57:19;;;;;;;41.95;21.52;;;5.10;99.90;;;3.05;100.00;101965.91;4991166;28;20065;-80
2021/11/23 07:59:46;;;;;;;41.80;22.23;;;5.10;99.90;;;3.05;100.00;101967.72;4988231;28;20054;-80
2021/11/23 08:02:14;;;;;;;42.22;21.67;;;5.10;99.90;;;3.15;100.00;101971.53;5032474;23;20061;-86
2021/11/23 08:04:41;;;;;;;40.40;21.38;;;5.10;99.90;;;3.13;100.00;101973.47;5009561;28;20053;-86
2021/11/23 08:07:10;;;;;;;41.47;21.50;;;5.10;99.90;;;3.15;100.00;101968.84;5010501;28;20246;-86
2021/11/23 08:09:37;;;;;;;44.78;22.00;;;5.10;99.90;;;3.19;100.00;101970.38;4992894;28;20058;-86
2021/11/23 08:12:06;;;;;;;41.63;21.92;;;5.30;99.90;;;3.21;100.00;101970.28;4995098;28;20096;-86
2021/11/23 08:14:33;;;;;;;48.35;22.67;;;5.20;99.90;;;3.21;100.00;101983.72;4990188;28;20103;-86
2021/11/23 08:17:00;;;;;;;45.05;23.52;;;5.20;99.90;;;3.22;100.00;101988.13;4985768;28;20046;-86
2021/11/23 08:19:28;;;;;;;45.10;23.35;;;5.20;99.90;;;3.22;100.00;101978.25;4986070;28;20507;-86
2021/11/23 08:21:55;;;;;;;46.40;23.42;;;5.20;99.90;;;3.26;100.00;101976.22;4990237;28;20547;-86
2021/11/23 08:24:24;;;;;;;48.45;25.10;;;5.30;99.90;;;3.28;100.00;101983.22;4989549;28;20039;-87
2021/11/23 08:26:51;;;;;;;45.33;23.30;;;5.20;99.90;;;3.24;100.00;101984.38;4990692;28;20046;-86
2021/11/23 08:29:18;;;;;;;49.53;25.40;;;5.20;99.90;;;3.24;100.00;101987.06;4990642;28;20046;-86
2021/11/23 08:31:46;;;;;;;48.67;24.73;;;5.20;99.90;;;3.29;100.00;101978.69;4987324;28;20047;-86
2021/11/23 08:34:13;;;;;;;45.53;24.52;;;5.30;99.90;;;3.31;100.00;101976.75;4989501;28;20038;-86
2021/11/23 08:36:40;;;;;;;50.35;24.85;;;5.30;99.90;;;3.30;100.00;101989.34;4990525;28;20042;-86
2021/11/23 08:39:09;;;;;;;48.45;24.52;;;5.30;99.90;;;3.31;100.00;101984.81;4972992;28;20054;-85
2021/11/23 08:41:37;;;;;;;46.70;23.83;;;5.30;99.90;;;3.35;100.00;101985.50;4990228;28;20050;-89
2021/11/23 08:44:05;;;;;;;50.33;25.25;;;5.30;99.90;;;3.39;100.00;101987.91;4989573;28;20104;-89
2021/11/23 08:46:32;;;;;;;50.28;24.83;;;5.30;99.90;;;3.44;100.00;101987.56;4989920;28;20114;-89
2021/11/23 08:49:00;;;;;;;46.70;24.73;;;5.40;99.90;;;3.51;100.00;101988.91;4990046;28;20054;-89
2021/11/23 08:51:31;;;;;;;44.20;22.77;;;5.40;99.90;;;3.51;100.00;101995.16;4972029;28;20054;-89
2021/11/23 08:53:58;;;;;;;45.03;24.10;;;5.40;99.90;;;3.59;100.00;101991.94;4989216;28;20417;-89
2021/11/23 08:56:31;;;;;;;51.40;26.05;;;5.40;99.90;;;3.66;100.00;101997.78;4988097;28;20093;-88
2021/11/23 08:59:01;;;;;;;50.78;24.55;;;5.50;99.90;;;3.74;100.00;102000.81;4955802;28;20055;-89
2021/11/23 09:01:29;;;;;;;56.53;27.83;;;5.50;99.90;;;3.73;100.00;102007.16;4980947;28;20042;-89
2021/11/23 09:03:56;;;;;;;52.75;25.50;;;5.50;99.90;;;3.70;100.00;102002.84;4991448;28;20132;-89
2021/11/23 09:06:26;;;;;;;44.65;24.63;;;5.60;99.90;;;3.75;100.00;101999.88;4990058;28;20046;-90
2021/11/23 09:08:55;;;;;;;49.55;25.35;;;5.60;99.90;;;3.82;100.00;102003.84;4990016;28;20050;-88
2021/11/23 09:11:23;;;;;;;39.10;22.98;;;5.70;99.90;;;3.87;100.00;102007.09;4989858;28;20054;-86
2021/11/23 09:13:51;;;;;;;46.75;24.00;;;5.70;99.90;;;3.89;100.00;102005.16;4965970;28;20057;-87
2021/11/23 09:16:20;;;;;;;46.85;23.85;;;5.70;99.90;;;3.87;100.00;102001.72;4978242;28;20038;-87
2021/11/23 09:18:48;;;;;;;44.33;23.67;;;5.80;99.90;;;3.87;100.00;102006.25;4981018;28;20128;-87
2021/11/23 09:21:15;;;;;;;49.15;24.88;;;5.80;99.90;;;3.89;100.00;102005.16;4961457;28;20050;-86
2021/11/23 09:23:42;;;;;;;47.33;24.90;;;5.80;99.90;;;3.92;100.00;102004.97;4985648;28;20049;-86
2021/11/23 09:26:10;;;;;;;48.63;24.98;;;5.80;99.90;;;4.00;100.00;102011.63;4973167;28;20070;-90
2021/11/23 09:28:38;;;;;;;48.15;24.95;;;5.90;99.90;;;3.97;100.00;102006.47;4985702;28;20042;-90
2021/11/23 09:31:06;;;;;;;45.78;25.08;;;5.90;99.90;;;3.93;100.00;102013.91;4962648;28;20047;-90
2021/11/23 09:33:35;;;;;;;42.17;22.45;;;5.90;99.90;;;3.95;100.00;102008.41;4967395;28;20070;-91
2021/11/23 09:36:02;;;;;;;49.47;23.75;;;5.90;99.90;;;3.95;100.00;102013.81;4983460;28;20104;-92
2021/11/23 09:38:29;;;;;;;45.33;22.65;;;5.90;99.90;;;3.92;100.00;102012.16;4989428;28;20136;-91
2021/11/23 09:40:57;;;;;;;40.13;21.95;;;6.00;99.90;;;3.99;100.00;102010.78;4964080;28;20507;-92
2021/11/23 09:43:24;;;;;;;50.03;24.05;;;6.00;99.90;;;3.99;100.00;102009.94;4963170;28;20046;-91
2021/11/23 09:45:53;;;;;;;41.50;22.20;;;6.00;99.90;;;4.01;100.00;102018.75;4975906;28;20047;-92
2021/11/23 09:48:21;;;;;;;42.05;23.00;;;6.00;99.90;;;4.04;100.00;102014.03;4983107;28;20046;-91
2021/11/23 09:50:51;;;;;;;42.90;21.90;;;6.00;99.90;;;4.06;100.00;102011.25;4986579;28;20043;-91
2021/11/23 09:53:21;;;;;;;41.65;23.25;;;6.00;99.90;;;4.15;100.00;102015.09;4983854;28;20557;-91
2021/11/23 09:55:51;;;;;;;37.15;21.70;;;6.00;99.90;;;4.20;100.00;102008.44;4968889;28;20050;-92
2021/11/23 09:58:18;;;;;;;39.80;21.42;;;6.00;99.90;;;4.20;100.00;102005.75;4971340;28;20503;-91
2021/11/23 10:00:49;;;;;;;40.42;21.02;;;6.10;99.90;;;4.21;100.00;102012.03;4987340;28;20125;-92
2021/11/23 10:03:27;;;;;;;36.30;20.80;;;6.10;99.90;;;4.17;100.00;102014.06;4965904;28;20101;-93
2021/11/23 10:06:07;;;;;;;37.90;20.77;;;6.10;99.90;;;4.21;100.00;102010.19;4968811;28;20429;-91
2021/11/23 10:08:35;;;;;;;44.65;22.58;;;6.10;99.90;;;4.18;100.00;102001.44;4982216;28;20054;-92
2021/11/23 10:11:03;;;;;;;41.65;21.95;;;6.20;99.90;;;4.19;100.00;102005.84;4979235;28;20038;-91
2021/11/23 10:13:48;;;;;;;41.78;22.77;;;6.20;99.90;;;4.25;100.00;102000.06;4988678;28;20526;-92
2021/11/23 10:16:16;;;;;;;42.53;21.67;;;6.20;99.90;;;4.29;100.00;102001.56;4962920;28;20061;-92